Time;durP1;ratioP1;P1;durP2;ratioP2;P2;SDS_P1;SDS_P2;PMS_P1;PMS_P2;Temp;Humidity;BMP_temperature;BMP_pressure;BME280_temperature;BME280_humidity;BME280_pressure;Samples;Min_cycle;Max_cycle;Signal;HPM_P1;HPM_P2
2020/12/06 00:01:07;;;;;;;65.40;28.38;;;1.40;99.90;;;;;;4734418;30;20147;-78
2020/12/06 00:03:39;;;;;;;63.97;26.73;;;1.40;99.90;;;;;;4720501;30;20056;-78
2020/12/06 00:06:10;;;;;;;57.33;26.02;;;1.40;99.90;;;;;;4734366;30;20060;-78
2020/12/06 00:08:42;;;;;;;54.90;24.88;;;1.40;99.90;;;;;;4734110;30;20070;-78
2020/12/06 00:11:15;;;;;;;63.63;28.02;;;1.40;99.90;;;;;;4734408;30;20114;-78
2020/12/06 00:13:46;;;;;;;59.57;26.53;;;1.40;99.90;;;;;;4749108;30;20070;-78
2020/12/06 00:16:18;;;;;;;57.95;27.20;;;1.40;99.90;;;;;;4748372;30;20102;-78
2020/12/06 00:18:50;;;;;;;63.20;27.58;;;1.40;99.90;;;;;;4737429;30;20048;-79
2020/12/06 00:21:18;;;;;;;60.75;25.60;;;1.40;99.90;;;;;;4748877;30;20048;-79
2020/12/06 00:23:46;;;;;;;54.58;24.52;;;1.40;99.90;;;;;;4748899;30;20406;-78
2020/12/06 00:26:19;;;;;;;54.17;23.40;;;1.40;99.90;;;;;;4748654;30;20059;-79
2020/12/06 00:28:45;;;;;;;56.38;24.17;;;1.40;99.90;;;;;;4748389;30;20090;-78
2020/12/06 00:31:11;;;;;;;57.13;25.17;;;1.40;99.90;;;;;;4746580;30;20109;-79
2020/12/06 00:33:44;;;;;;;55.38;25.08;;;1.30;99.90;;;;;;4733785;30;20066;-79
2020/12/06 00:36:16;;;;;;;60.67;26.73;;;1.30;99.90;;;;;;4749401;30;20142;-78
2020/12/06 00:38:43;;;;;;;57.38;25.27;;;1.30;99.90;;;;;;4763800;30;20059;-78
2020/12/06 00:41:14;;;;;;;56.70;23.88;;;1.20;99.90;;;;;;4749126;30;20084;-78
2020/12/06 00:43:46;;;;;;;62.45;26.80;;;1.20;99.90;;;;;;4749208;30;20074;-78
2020/12/06 00:46:21;;;;;;;57.05;25.20;;;1.30;99.90;;;;;;4749239;30;20056;-78
2020/12/06 00:48:48;;;;;;;57.35;28.33;;;1.30;99.90;;;;;;4749202;30;20197;-78
2020/12/06 00:51:20;;;;;;;56.58;26.27;;;1.30;99.90;;;;;;4749525;30;20097;-78
2020/12/06 00:53:46;;;;;;;62.75;26.02;;;1.30;99.90;;;;;;4734628;30;20155;-78
2020/12/06 00:56:21;;;;;;;52.40;23.25;;;1.30;99.90;;;;;;4749302;30;20052;-78
2020/12/06 00:58:48;;;;;;;58.05;24.45;;;1.30;99.90;;;;;;4734452;30;20143;-78
2020/12/06 01:01:16;;;;;;;51.63;24.92;;;1.30;99.90;;;;;;4749689;30;20059;-78
2020/12/06 01:03:43;;;;;;;54.97;24.65;;;1.30;99.90;;;;;;4748530;30;20588;-78
2020/12/06 01:06:17;;;;;;;52.08;23.30;;;1.40;99.90;;;;;;4749449;30;20048;-78
2020/12/06 01:08:44;;;;;;;58.72;24.10;;;1.40;99.90;;;;;;4749199;30;20509;-79
2020/12/06 01:11:16;;;;;;;60.80;23.88;;;1.40;99.90;;;;;;4749038;30;20062;-78
2020/12/06 01:13:47;;;;;;;62.42;25.13;;;1.40;99.90;;;;;;4748964;30;20052;-78
2020/12/06 01:16:14;;;;;;;54.90;24.42;;;1.40;99.90;;;;;;4748971;30;20048;-78
2020/12/06 01:18:45;;;;;;;56.30;23.85;;;1.40;99.90;;;;;;4734877;30;20056;-78
2020/12/06 01:21:13;;;;;;;58.63;24.95;;;1.40;99.90;;;;;;4749120;30;20060;-78
2020/12/06 01:23:39;;;;;;;58.05;25.02;;;1.40;99.90;;;;;;4734260;30;20052;-78
2020/12/06 01:26:12;;;;;;;56.10;24.50;;;1.40;99.90;;;;;;4748879;30;20052;-79
2020/12/06 01:28:43;;;;;;;56.00;24.67;;;1.40;99.90;;;;;;4748634;30;20056;-79
2020/12/06 01:31:14;;;;;;;61.63;25.17;;;1.40;99.90;;;;;;4748736;30;20576;-78
2020/12/06 01:33:41;;;;;;;63.55;24.73;;;1.40;99.90;;;;;;4734164;30;20482;-78
2020/12/06 01:36:07;;;;;;;58.40;24.85;;;1.40;99.90;;;;;;4748775;30;20056;-78
2020/12/06 01:38:34;;;;;;;74.75;24.20;;;1.40;99.90;;;;;;4748359;30;20163;-78
2020/12/06 01:41:00;;;;;;;64.75;26.00;;;1.40;99.90;;;;;;4748630;30;20055;-79
2020/12/06 01:43:26;;;;;;;61.83;25.52;;;1.40;99.90;;;;;;4748909;30;20478;-78
2020/12/06 01:45:53;;;;;;;65.20;25.35;;;1.40;99.90;;;;;;4748439;30;20109;-78
2020/12/06 01:48:24;;;;;;;62.55;24.15;;;1.40;99.90;;;;;;4734391;30;20052;-78
2020/12/06 01:50:51;;;;;;;65.97;25.20;;;1.40;99.90;;;;;;4763567;30;20052;-78
2020/12/06 01:53:17;;;;;;;63.45;24.77;;;1.40;99.90;;;;;;4748612;30;20517;-78
2020/12/06 01:55:49;;;;;;;64.57;24.58;;;1.40;99.90;;;;;;4734574;30;20055;-78
2020/12/06 01:58:16;;;;;;;61.88;25.95;;;1.40;99.90;;;;;;4748360;30;20137;-78
2020/12/06 02:00:42;;;;;;;57.95;24.52;;;1.40;99.90;;;;;;4748444;30;20054;-79
2020/12/06 02:03:08;;;;;;;62.97;25.67;;;1.40;99.90;;;;;;4733542;30;20414;-79
2020/12/06 02:05:40;;;;;;;57.92;24.17;;;1.40;99.90;;;;;;4748232;30;20309;-78
2020/12/06 02:08:12;;;;;;;51.92;23.13;;;1.40;99.90;;;;;;4747712;30;20048;-78
2020/12/06 02:10:43;;;;;;;49.03;21.02;;;1.40;99.90;;;;;;4748260;30;20052;-78
2020/12/06 02:13:10;;;;;;;49.70;22.90;;;1.30;99.90;;;;;;4748067;30;20052;-78
2020/12/06 02:15:41;;;;;;;52.80;23.13;;;1.40;99.90;;;;;;4737266;30;20097;-78
2020/12/06 02:18:07;;;;;;;52.50;21.48;;;1.40;99.90;;;;;;4736834;30;20052;-78
2020/12/06 02:20:33;;;;;;;54.58;22.58;;;1.40;99.90;;;;;;4752145;30;20058;-79
2020/12/06 02:23:05;;;;;;;53.33;22.42;;;1.30;99.90;;;;;;4737707;30;20121;-78
2020/12/06 02:25:36;;;;;;;53.80;22.88;;;1.30;99.90;;;;;;4751733;30;20052;-78
2020/12/06 02:28:04;;;;;;;45.33;21.20;;;1.30;99.90;;;;;;4751369;30;20048;-78
2020/12/06 02:30:36;;;;;;;50.30;22.00;;;1.30;99.90;;;;;;4751474;30;20106;-78
2020/12/06 02:33:07;;;;;;;49.00;21.73;;;1.30;99.90;;;;;;4751584;30;20529;-78
2020/12/06 02:35:33;;;;;;;52.13;23.50;;;1.30;99.90;;;;;;4751775;30;20052;-78
2020/12/06 02:38:00;;;;;;;53.33;22.40;;;1.30;99.90;;;;;;4736971;30;20044;-79
2020/12/06 02:40:32;;;;;;;52.80;23.35;;;1.30;99.90;;;;;;4737686;30;20513;-78
2020/12/06 02:42:58;;;;;;;56.42;22.48;;;1.30;99.90;;;;;;4751643;30;20075;-78
2020/12/06 02:45:24;;;;;;;51.35;22.80;;;1.40;99.90;;;;;;4751595;30;20056;-78
2020/12/06 02:47:51;;;;;;;53.10;22.58;;;1.40;99.90;;;;;;4765792;30;20144;-79
2020/12/06 02:50:23;;;;;;;54.70;22.60;;;1.30;99.90;;;;;;4737742;30;20056;-79
2020/12/06 02:52:57;;;;;;;51.55;21.17;;;1.30;99.90;;;;;;4751349;30;20063;-78
2020/12/06 02:55:29;;;;;;;51.55;21.85;;;1.30;99.90;;;;;;4737601;30;20048;-78
2020/12/06 02:58:00;;;;;;;52.13;21.55;;;1.30;99.90;;;;;;4751264;30;20148;-78
2020/12/06 03:00:32;;;;;;;54.10;22.77;;;1.30;99.90;;;;;;4737563;30;20109;-79
2020/12/06 03:02:58;;;;;;;58.05;22.27;;;1.30;99.90;;;;;;4751282;30;20055;-79
2020/12/06 03:05:24;;;;;;;48.90;22.73;;;1.30;99.90;;;;;;4736680;30;20074;-78
2020/12/06 03:07:56;;;;;;;58.55;23.30;;;1.30;99.90;;;;;;4750965;30;20056;-78
2020/12/06 03:10:23;;;;;;;61.75;23.30;;;1.30;99.90;;;;;;4751335;30;20461;-78
2020/12/06 03:12:54;;;;;;;47.00;20.33;;;1.30;99.90;;;;;;4751227;30;20147;-79
2020/12/06 03:15:21;;;;;;;53.33;21.50;;;1.30;99.90;;;;;;4736588;30;20051;-79
2020/12/06 03:17:52;;;;;;;57.13;23.45;;;1.30;99.90;;;;;;4750855;30;20521;-79
2020/12/06 03:20:24;;;;;;;51.78;22.40;;;1.30;99.90;;;;;;4737160;30;20122;-78
2020/12/06 03:22:50;;;;;;;73.35;23.52;;;1.30;99.90;;;;;;4750974;30;20512;-78
2020/12/06 03:25:16;;;;;;;56.53;23.08;;;1.30;99.90;;;;;;4751243;30;20618;-78
2020/12/06 03:27:42;;;;;;;66.95;24.30;;;1.30;99.90;;;;;;4750313;30;20573;-78
2020/12/06 03:30:14;;;;;;;67.93;23.65;;;1.30;99.90;;;;;;4737185;30;20056;-79
2020/12/06 03:32:45;;;;;;;55.17;22.88;;;1.30;99.90;;;;;;4751078;30;20048;-78
2020/12/06 03:35:11;;;;;;;82.82;24.98;;;1.30;99.90;;;;;;4736410;30;20048;-78
2020/12/06 03:37:37;;;;;;;63.83;23.27;;;1.20;99.90;;;;;;4750827;30;20048;-78
2020/12/06 03:40:04;;;;;;;74.57;24.85;;;1.20;99.90;;;;;;4750905;30;20528;-78
2020/12/06 03:42:35;;;;;;;62.38;23.20;;;1.20;99.90;;;;;;4750887;30;20083;-78
2020/12/06 03:45:07;;;;;;;59.10;24.75;;;1.20;99.90;;;;;;4736684;30;20083;-79
2020/12/06 03:47:33;;;;;;;57.40;24.42;;;1.20;99.90;;;;;;4750897;30;20159;-78
2020/12/06 03:49:59;;;;;;;78.25;26.35;;;1.30;99.90;;;;;;4735849;30;20048;-79
2020/12/06 03:52:31;;;;;;;86.47;27.77;;;1.30;99.90;;;;;;4750492;30;20129;-78
2020/12/06 03:54:57;;;;;;;69.78;27.67;;;1.30;99.90;;;;;;4750565;30;20052;-78
2020/12/06 03:57:28;;;;;;;109.50;26.63;;;1.30;99.90;;;;;;4751116;30;20365;-79
2020/12/06 04:00:00;;;;;;;104.65;26.00;;;1.30;99.90;;;;;;4751086;30;20134;-79
2020/12/06 04:02:27;;;;;;;183.57;29.42;;;1.30;99.90;;;;;;4750520;30;20052;-78
2020/12/06 04:05:00;;;;;;;84.32;25.33;;;1.20;99.90;;;;;;4750364;30;20082;-78
2020/12/06 04:07:31;;;;;;;104.47;25.20;;;1.20;99.90;;;;;;4750234;30;20082;-79
2020/12/06 04:10:03;;;;;;;109.72;25.75;;;1.20;99.90;;;;;;4736060;30;20139;-78
2020/12/06 04:12:34;;;;;;;82.72;25.45;;;1.20;99.90;;;;;;4736256;30;20126;-78
2020/12/06 04:15:05;;;;;;;87.80;24.27;;;1.20;99.90;;;;;;4736135;30;20412;-78
2020/12/06 04:17:37;;;;;;;68.88;23.35;;;1.10;99.90;;;;;;4749684;30;20051;-78
2020/12/06 04:20:05;;;;;;;70.70;24.13;;;1.10;99.90;;;;;;4749907;30;20048;-78
2020/12/06 04:22:31;;;;;;;69.93;23.92;;;1.10;99.90;;;;;;4749975;30;20060;-78
2020/12/06 04:24:57;;;;;;;78.18;24.23;;;1.20;99.90;;;;;;4764596;30;20151;-78
2020/12/06 04:27:24;;;;;;;63.25;23.42;;;1.20;99.90;;;;;;4749757;30;20143;-78
2020/12/06 04:29:50;;;;;;;61.40;22.35;;;1.10;99.90;;;;;;4764300;30;20113;-79
2020/12/06 04:32:17;;;;;;;63.10;22.23;;;1.10;99.90;;;;;;4749868;30;20156;-79
2020/12/06 04:34:45;;;;;;;54.80;22.27;;;1.10;99.90;;;;;;4735049;30;20058;-78
2020/12/06 04:37:17;;;;;;;55.88;22.83;;;1.10;99.90;;;;;;4749440;30;20055;-79
2020/12/06 04:39:43;;;;;;;52.92;22.30;;;1.10;99.90;;;;;;4748852;30;20048;-78
2020/12/06 04:42:15;;;;;;;55.28;21.77;;;1.10;99.90;;;;;;4749720;30;20102;-78
2020/12/06 04:44:41;;;;;;;50.70;22.33;;;1.10;99.90;;;;;;4749626;30;20129;-78
2020/12/06 04:47:36;;;;;;;56.95;21.90;;;1.10;99.90;;;;;;4749543;30;20056;-79
2020/12/06 04:50:04;;;;;;;59.03;20.45;;;1.00;99.90;;;;;;4749240;30;20560;-78
2020/12/06 04:52:43;;;;;;;57.00;22.27;;;1.00;99.90;;;;;;4749577;30;20052;-78
2020/12/06 04:55:18;;;;;;;53.55;20.67;;;1.00;99.90;;;;;;4749636;30;20105;-78
2020/12/06 04:57:46;;;;;;;54.30;21.15;;;1.00;99.90;;;;;;4749185;30;20122;-78
2020/12/06 05:00:20;;;;;;;51.78;20.50;;;1.00;99.90;;;;;;4749651;30;20118;-78
2020/12/06 05:02:48;;;;;;;54.55;21.58;;;1.00;99.90;;;;;;4749411;30;20356;-78
2020/12/06 05:05:17;;;;;;;57.13;21.83;;;1.00;99.90;;;;;;4749309;30;20071;-78
2020/12/06 05:07:44;;;;;;;54.00;22.05;;;1.00;99.90;;;;;;4749089;30;20141;-78
2020/12/06 05:10:11;;;;;;;50.47;21.38;;;1.00;99.90;;;;;;4764017;30;20071;-78
2020/12/06 05:12:44;;;;;;;54.15;20.83;;;1.10;99.90;;;;;;4749211;30;20079;-78
2020/12/06 05:15:15;;;;;;;60.08;22.50;;;1.10;99.90;;;;;;4749293;30;20048;-78
2020/12/06 05:17:46;;;;;;;60.78;23.42;;;1.10;99.90;;;;;;4734803;30;20075;-78
2020/12/06 05:20:13;;;;;;;63.85;25.23;;;1.10;99.90;;;;;;4749031;30;20080;-78
2020/12/06 05:22:45;;;;;;;54.92;22.73;;;1.10;99.90;;;;;;4748373;30;20082;-78
2020/12/06 05:25:16;;;;;;;86.28;29.55;;;1.20;99.90;;;;;;4764398;30;20036;-79
2020/12/06 05:27:48;;;;;;;60.85;24.85;;;1.20;99.90;;;;;;4737110;30;20121;-77
2020/12/06 05:30:20;;;;;;;73.72;22.15;;;1.20;99.90;;;;;;4738284;30;20508;-78
2020/12/06 05:32:46;;;;;;;80.53;23.25;;;1.20;99.90;;;;;;4752232;30;20535;-78
2020/12/06 05:35:13;;;;;;;56.95;20.38;;;1.10;99.90;;;;;;4752091;30;20133;-79
2020/12/06 05:37:41;;;;;;;58.90;21.83;;;1.10;99.90;;;;;;4752091;30;20150;-79
2020/12/06 05:40:10;;;;;;;61.70;21.52;;;1.10;99.90;;;;;;4752443;30;20115;-78
2020/12/06 05:42:39;;;;;;;65.65;23.58;;;1.10;99.90;;;;;;4766899;30;20149;-78
2020/12/06 05:45:11;;;;;;;;;;;1.10;99.90;;;;;;4766945;30;20048;-78
2020/12/06 05:47:42;;;;;;;53.03;19.92;;;1.20;99.90;;;;;;4766880;30;19926;-78
2020/12/06 05:50:13;;;;;;;61.15;24.95;;;1.20;99.90;;;;;;4738093;30;20052;-78
2020/12/06 05:52:45;;;;;;;63.60;23.45;;;1.20;99.90;;;;;;4752156;30;20483;-78
2020/12/06 05:55:16;;;;;;;68.60;25.02;;;1.30;99.90;;;;;;4737987;30;20056;-78
2020/12/06 05:57:47;;;;;;;57.83;22.77;;;1.30;99.90;;;;;;4737831;30;20406;-78
2020/12/06 06:00:14;;;;;;;60.03;23.05;;;1.30;99.90;;;;;;4737743;30;20135;-78
2020/12/06 06:02:52;;;;;;;50.07;17.97;;;1.30;99.90;;;;;;4751929;30;20139;-78
2020/12/06 06:05:23;;;;;;;55.30;22.45;;;1.30;99.90;;;;;;4752033;30;20044;-78
2020/12/06 06:07:59;;;;;;;55.92;20.80;;;1.30;99.90;;;;;;4751966;30;20051;-79
2020/12/06 06:10:38;;;;;;;57.42;20.45;;;1.40;99.90;;;;;;4752131;30;20118;-78
2020/12/06 06:13:11;;;;;;;54.75;20.75;;;1.40;99.90;;;;;;4752002;30;20135;-78
2020/12/06 06:15:39;;;;;;;56.10;20.33;;;1.40;99.90;;;;;;4751727;30;20406;-78
2020/12/06 06:18:07;;;;;;;56.45;21.38;;;1.40;99.90;;;;;;4751989;30;20119;-78
2020/12/06 06:20:34;;;;;;;59.72;23.38;;;1.40;99.90;;;;;;4766456;30;20087;-80
2020/12/06 06:23:01;;;;;;;58.65;23.75;;;1.40;99.90;;;;;;4751398;30;20052;-80
2020/12/06 06:25:29;;;;;;;60.60;22.48;;;1.40;99.90;;;;;;4753693;30;20052;-80
2020/12/06 06:27:57;;;;;;;63.25;21.90;;;1.30;99.90;;;;;;4752603;30;20129;-80
2020/12/06 06:30:24;;;;;;;61.20;23.00;;;1.30;99.90;;;;;;4737137;30;20064;-79
2020/12/06 06:32:51;;;;;;;61.63;20.67;;;1.30;99.90;;;;;;4749194;30;20083;-80
2020/12/06 06:35:19;;;;;;;63.60;21.50;;;1.30;99.90;;;;;;4734844;30;20056;-80
2020/12/06 06:37:47;;;;;;;61.42;23.42;;;1.20;99.90;;;;;;4749202;30;20143;-80
2020/12/06 06:40:26;;;;;;;59.97;22.48;;;1.20;99.90;;;;;;4735517;30;20475;-80
2020/12/06 06:42:54;;;;;;;63.63;23.15;;;1.20;99.90;;;;;;4734458;30;20056;-80
2020/12/06 06:45:21;;;;;;;61.22;22.85;;;1.20;99.90;;;;;;4763567;30;20113;-80
2020/12/06 06:47:49;;;;;;;61.35;23.23;;;1.20;99.90;;;;;;4750856;30;20123;-81
2020/12/06 06:50:15;;;;;;;64.80;22.60;;;1.20;99.90;;;;;;4767568;30;20060;-80
2020/12/06 06:52:47;;;;;;;63.50;21.95;;;1.30;99.90;;;;;;4750594;30;20054;-80
2020/12/06 06:55:16;;;;;;;58.78;21.70;;;1.30;99.90;;;;;;4752674;30;20070;-81
2020/12/06 06:57:44;;;;;;;67.15;22.23;;;1.30;99.90;;;;;;4760945;30;20076;-80
2020/12/06 07:00:10;;;;;;;63.85;20.92;;;1.30;99.90;;;;;;4760892;30;20505;-80
2020/12/06 07:02:41;;;;;;;61.35;23.02;;;1.30;99.90;;;;;;4766696;30;20053;-81
2020/12/06 07:05:13;;;;;;;63.53;22.02;;;1.30;99.90;;;;;;4763065;30;20083;-80
2020/12/06 07:07:44;;;;;;;72.20;22.65;;;1.30;99.90;;;;;;4773819;29;20032;-82
2020/12/06 07:10:17;;;;;;;64.25;21.80;;;1.20;99.90;;;;;;4775326;29;20444;-81
2020/12/06 07:12:44;;;;;;;62.28;22.40;;;1.20;99.90;;;;;;4753797;30;20075;-80
2020/12/06 07:15:10;;;;;;;70.63;24.23;;;1.20;99.90;;;;;;4765498;30;20118;-80
2020/12/06 07:17:40;;;;;;;72.88;23.33;;;1.20;99.90;;;;;;4755302;30;20074;-80
2020/12/06 07:20:14;;;;;;;67.93;22.17;;;1.20;99.90;;;;;;4751771;30;20061;-79
2020/12/06 07:22:41;;;;;;;78.00;24.40;;;1.30;99.90;;;;;;4750826;30;20500;-79
2020/12/06 07:25:09;;;;;;;65.85;22.10;;;1.30;99.90;;;;;;4751376;30;20159;-79
2020/12/06 07:27:41;;;;;;;83.70;26.70;;;1.30;99.90;;;;;;4750026;30;20155;-79
2020/12/06 07:30:18;;;;;;;65.93;22.02;;;1.30;99.90;;;;;;4736311;30;20064;-79
2020/12/06 07:32:45;;;;;;;67.57;22.63;;;1.30;99.90;;;;;;4750206;30;20592;-79
2020/12/06 07:35:19;;;;;;;63.50;20.92;;;1.30;99.90;;;;;;4750265;30;20055;-79
2020/12/06 07:37:56;;;;;;;60.47;21.17;;;1.30;99.90;;;;;;4749881;30;20055;-79
2020/12/06 07:40:27;;;;;;;69.40;23.52;;;1.30;99.90;;;;;;4750037;30;20056;-78
2020/12/06 07:43:10;;;;;;;54.10;19.48;;;1.30;99.90;;;;;;4749973;30;20048;-79
2020/12/06 07:45:41;;;;;;;59.00;21.25;;;1.30;99.90;;;;;;4749895;30;20044;-79
2020/12/06 07:48:19;;;;;;;58.42;19.98;;;1.30;99.90;;;;;;4749679;30;20127;-79
2020/12/06 07:50:50;;;;;;;57.10;19.00;;;1.30;99.90;;;;;;4750017;30;20063;-79
2020/12/06 07:53:22;;;;;;;46.45;16.23;;;1.30;99.90;;;;;;4749641;30;20048;-79
2020/12/06 07:55:48;;;;;;;46.53;18.48;;;1.30;99.90;;;;;;4749843;30;20060;-79
2020/12/06 07:58:20;;;;;;;49.35;16.25;;;1.30;99.90;;;;;;4749480;30;20151;-79
2020/12/06 08:00:49;;;;;;;45.67;18.42;;;1.30;99.90;;;;;;4749479;30;20586;-79
2020/12/06 08:03:21;;;;;;;49.55;16.85;;;1.30;99.90;;;;;;4749430;30;20052;-79
2020/12/06 08:05:52;;;;;;;43.15;15.07;;;1.30;99.90;;;;;;4749403;30;20497;-79
2020/12/06 08:08:20;;;;;;;40.90;15.80;;;1.40;99.90;;;;;;4749157;30;20070;-79
2020/12/06 08:10:54;;;;;;;39.50;15.13;;;1.40;99.90;;;;;;4763558;30;20048;-79
2020/12/06 08:13:20;;;;;;;38.75;15.43;;;1.40;99.90;;;;;;4748996;30;20138;-79
2020/12/06 08:15:52;;;;;;;34.65;15.50;;;1.50;99.90;;;;;;4749420;30;20114;-79
2020/12/06 08:18:23;;;;;;;32.83;14.30;;;1.50;99.90;;;;;;4749363;30;20058;-79
2020/12/06 08:20:55;;;;;;;38.47;14.27;;;1.50;99.90;;;;;;4735537;30;20509;-79
2020/12/06 08:23:39;;;;;;;36.70;14.23;;;1.50;99.90;;;;;;4749374;30;20079;-79
2020/12/06 08:26:05;;;;;;;36.03;13.15;;;1.60;99.90;;;;;;4751394;30;20422;-79
2020/12/06 08:28:37;;;;;;;34.63;14.57;;;1.60;99.90;;;;;;4751546;30;20059;-79
2020/12/06 08:31:28;;;;;;;32.53;14.50;;;1.60;99.90;;;;;;4731667;30;20044;-79
2020/12/06 08:34:11;;;;;;;32.08;13.07;;;1.70;99.90;;;;;;4718688;30;20139;-80
2020/12/06 08:36:38;;;;;;;28.10;13.20;;;1.70;99.90;;;;;;4733001;30;20764;-80
2020/12/06 08:39:34;;;;;;;30.13;13.95;;;1.70;99.90;;;;;;4717418;30;20136;-80
2020/12/06 08:42:12;;;;;;;29.75;13.52;;;1.70;99.90;;;;;;4701821;30;20138;-80
2020/12/06 08:44:56;;;;;;;27.60;12.93;;;1.70;99.90;;;;;;4718314;30;20156;-80
2020/12/06 08:47:41;;;;;;;34.40;16.17;;;1.70;99.90;;;;;;4733275;30;20053;-80
2020/12/06 08:50:12;;;;;;;29.98;13.70;;;1.70;99.90;;;;;;4734613;30;20593;-80
2020/12/06 08:52:39;;;;;;;32.55;14.90;;;1.80;99.90;;;;;;4718614;30;20071;-80
2020/12/06 08:55:24;;;;;;;30.10;13.35;;;1.80;99.90;;;;;;4718504;30;20084;-80
2020/12/06 08:57:52;;;;;;;30.08;13.65;;;1.80;99.90;;;;;;4734018;30;20576;-80
2020/12/06 09:00:18;;;;;;;32.65;13.70;;;1.80;99.90;;;;;;4718447;30;20153;-80
2020/12/06 09:02:50;;;;;;;44.10;23.75;;;1.80;99.90;;;;;;4718200;30;20052;-80
2020/12/06 09:05:21;;;;;;;33.28;20.80;;;1.90;99.90;;;;;;4718877;30;20053;-80
2020/12/06 09:07:47;;;;;;;37.92;20.58;;;1.90;99.90;;;;;;4732442;30;20508;-80
2020/12/06 09:10:18;;;;;;;32.72;13.27;;;1.90;99.90;;;;;;4718778;30;20067;-80
2020/12/06 09:12:45;;;;;;;28.05;11.55;;;1.90;99.90;;;;;;4718300;30;20057;-80
2020/12/06 09:15:17;;;;;;;30.77;13.82;;;1.90;99.90;;;;;;4704067;30;20052;-80
2020/12/06 09:17:49;;;;;;;30.42;12.90;;;1.90;99.90;;;;;;4733300;30;20059;-80
2020/12/06 09:20:20;;;;;;;33.70;14.00;;;1.90;99.90;;;;;;4749479;30;20054;-80
2020/12/06 09:22:46;;;;;;;33.13;18.77;;;2.00;99.90;;;;;;4748527;30;20114;-80
2020/12/06 09:25:18;;;;;;;27.20;13.25;;;2.00;99.90;;;;;;4734839;30;20058;-80
2020/12/06 09:27:44;;;;;;;26.10;12.05;;;2.00;99.90;;;;;;4723482;30;20135;-80
2020/12/06 09:30:15;;;;;;;30.50;13.15;;;2.00;99.90;;;;;;4746933;30;20060;-80
2020/12/06 09:32:41;;;;;;;33.35;13.65;;;2.00;99.90;;;;;;4758882;30;20147;-80
2020/12/06 09:35:09;;;;;;;30.83;14.10;;;2.00;99.90;;;;;;4749747;30;20159;-80
2020/12/06 09:37:40;;;;;;;31.10;13.05;;;2.00;99.90;;;;;;4720857;30;20133;-81
2020/12/06 09:40:07;;;;;;;31.38;12.30;;;2.10;99.90;;;;;;4721477;30;20044;-80
2020/12/06 09:42:38;;;;;;;31.50;12.35;;;2.10;99.90;;;;;;4736114;30;20157;-80
2020/12/06 09:45:09;;;;;;;30.38;13.32;;;2.10;99.90;;;;;;4736531;30;20047;-80
2020/12/06 09:47:41;;;;;;;34.60;14.20;;;2.10;99.90;;;;;;4721539;30;20063;-81
2020/12/06 09:50:07;;;;;;;36.28;13.25;;;2.10;99.90;;;;;;4750580;30;20151;-80
2020/12/06 09:52:38;;;;;;;37.70;14.70;;;2.10;99.90;;;;;;4704308;30;20060;-80
2020/12/06 09:55:09;;;;;;;31.27;11.93;;;2.20;99.90;;;;;;4718434;30;20080;-79
2020/12/06 09:57:36;;;;;;;41.97;15.07;;;2.20;99.90;;;;;;4732327;30;20052;-80
2020/12/06 10:00:07;;;;;;;34.15;13.20;;;2.20;99.90;;;;;;4734944;30;20060;-80
2020/12/06 10:02:42;;;;;;;35.67;14.10;;;2.30;99.90;;;;;;4733141;30;20076;-79
2020/12/06 10:05:12;;;;;;;28.45;13.45;;;2.30;99.90;;;;;;4748461;30;20113;-81
2020/12/06 10:07:39;;;;;;;32.95;12.95;;;2.40;99.90;;;;;;4733290;30;20531;-80
2020/12/06 10:10:08;;;;;;;37.65;13.73;;;2.40;99.90;;;;;;4719018;30;20084;-80
2020/12/06 10:12:35;;;;;;;31.23;11.77;;;2.40;99.90;;;;;;4748002;30;20083;-80
2020/12/06 10:15:07;;;;;;;37.10;13.95;;;2.50;99.90;;;;;;4747397;30;20063;-80
2020/12/06 10:17:38;;;;;;;29.98;12.13;;;2.50;99.90;;;;;;4747100;30;20577;-80
2020/12/06 10:20:06;;;;;;;35.30;12.77;;;2.60;99.90;;;;;;4733229;30;20110;-80
2020/12/06 10:22:33;;;;;;;28.05;11.55;;;2.60;99.90;;;;;;4747600;30;20060;-81
2020/12/06 10:25:06;;;;;;;32.67;11.80;;;2.70;99.90;;;;;;4733118;30;20417;-80
2020/12/06 10:27:33;;;;;;;27.98;12.43;;;2.70;99.90;;;;;;4733074;30;20058;-80
2020/12/06 10:30:06;;;;;;;33.33;12.57;;;2.80;99.90;;;;;;4733796;30;20139;-79
2020/12/06 10:32:33;;;;;;;29.35;10.88;;;2.80;99.90;;;;;;4748280;30;20060;-79
2020/12/06 10:34:59;;;;;;;26.60;12.00;;;2.80;99.90;;;;;;4748244;30;20138;-79
2020/12/06 10:37:26;;;;;;;27.48;10.70;;;2.80;99.90;;;;;;4737070;30;20080;-78
2020/12/06 10:39:52;;;;;;;26.38;10.40;;;2.80;99.90;;;;;;4751255;30;20079;-79
2020/12/06 10:42:23;;;;;;;29.38;11.68;;;2.80;99.90;;;;;;4735532;30;20151;-78
2020/12/06 10:44:56;;;;;;;25.58;9.80;;;2.80;99.90;;;;;;4736615;30;20060;-79
2020/12/06 10:47:29;;;;;;;23.95;11.30;;;2.80;99.90;;;;;;4750894;30;20052;-78
2020/12/06 10:50:00;;;;;;;24.98;11.10;;;2.80;99.90;;;;;;4751126;30;20141;-79
2020/12/06 10:52:34;;;;;;;27.98;11.00;;;2.90;99.90;;;;;;4751393;30;20048;-79
2020/12/06 10:55:01;;;;;;;24.42;10.23;;;2.90;99.90;;;;;;4736512;30;20106;-79
2020/12/06 10:57:27;;;;;;;30.52;11.25;;;2.90;99.90;;;;;;4736813;30;20084;-79
2020/12/06 10:59:54;;;;;;;24.98;10.27;;;3.00;99.90;;;;;;4751090;30;20052;-79
2020/12/06 11:02:25;;;;;;;16.92;9.00;;;3.00;99.90;;;;;;4739961;30;20059;-77
2020/12/06 11:04:57;;;;;;;20.67;9.80;;;3.00;99.90;;;;;;4741957;30;20048;-78
2020/12/06 11:07:29;;;;;;;22.85;9.98;;;3.10;99.90;;;;;;4751657;30;20056;-78
2020/12/06 11:09:55;;;;;;;19.98;10.10;;;3.10;99.90;;;;;;4751302;30;20155;-78
2020/12/06 11:12:26;;;;;;;21.45;9.10;;;3.10;99.90;;;;;;4736580;30;20420;-78
2020/12/06 11:14:58;;;;;;;22.52;8.88;;;3.10;99.90;;;;;;4736634;30;20056;-78
2020/12/06 11:17:24;;;;;;;18.80;8.90;;;3.10;99.90;;;;;;4750362;30;20123;-78
2020/12/06 11:19:56;;;;;;;16.63;8.95;;;3.10;99.90;;;;;;4735530;30;20102;-78
2020/12/06 11:22:28;;;;;;;21.75;9.68;;;3.20;99.90;;;;;;4751655;30;20054;-78
2020/12/06 11:24:54;;;;;;;17.33;8.38;;;3.20;99.90;;;;;;4736806;30;20119;-78
2020/12/06 11:27:20;;;;;;;17.73;8.98;;;3.20;99.90;;;;;;4752166;30;20084;-78
2020/12/06 11:29:53;;;;;;;18.33;8.32;;;3.20;99.90;;;;;;4752116;30;20193;-78
2020/12/06 11:32:27;;;;;;;20.25;9.48;;;3.20;99.90;;;;;;4737680;30;20148;-78
2020/12/06 11:34:53;;;;;;;16.75;8.95;;;3.10;99.90;;;;;;4737433;30;20158;-78
2020/12/06 11:37:24;;;;;;;18.65;9.10;;;3.10;99.90;;;;;;4737668;30;20063;-78
2020/12/06 11:39:51;;;;;;;17.65;8.82;;;3.00;99.90;;;;;;4752506;30;20046;-78
2020/12/06 11:42:17;;;;;;;16.73;8.45;;;3.10;99.90;;;;;;4737089;30;20098;-77
2020/12/06 11:44:43;;;;;;;21.92;9.65;;;3.10;99.90;;;;;;4751833;30;20075;-78
2020/12/06 11:47:14;;;;;;;18.55;8.93;;;3.00;99.90;;;;;;4736786;30;20056;-77
2020/12/06 11:49:41;;;;;;;20.30;9.20;;;3.00;99.90;;;;;;4736607;30;20086;-77
2020/12/06 11:52:08;;;;;;;19.08;9.00;;;3.00;99.90;;;;;;4738377;30;20072;-77
2020/12/06 11:54:35;;;;;;;16.48;8.32;;;3.10;99.90;;;;;;4755957;30;20146;-77
2020/12/06 11:57:01;;;;;;;20.70;9.38;;;3.10;99.90;;;;;;4751804;30;20056;-77
2020/12/06 11:59:32;;;;;;;17.77;8.40;;;3.10;99.90;;;;;;4750390;30;20045;-79
2020/12/06 12:01:59;;;;;;;20.45;8.35;;;3.10;99.90;;;;;;4751367;30;20564;-77
2020/12/06 12:04:30;;;;;;;21.55;11.20;;;3.10;99.90;;;;;;4736809;30;20052;-77
2020/12/06 12:06:56;;;;;;;16.92;7.95;;;3.10;99.90;;;;;;4751622;30;20190;-77
2020/12/06 12:09:27;;;;;;;15.82;8.30;;;3.10;99.90;;;;;;4751165;30;20050;-77
2020/12/06 12:11:54;;;;;;;22.17;13.02;;;3.10;99.90;;;;;;4736972;30;20138;-77
2020/12/06 12:14:20;;;;;;;17.23;8.38;;;3.10;99.90;;;;;;4749543;30;20131;-77
2020/12/06 12:16:51;;;;;;;17.00;8.93;;;3.20;99.90;;;;;;4749231;30;20051;-77
2020/12/06 12:19:22;;;;;;;15.90;9.13;;;3.10;99.90;;;;;;4750106;30;20062;-77
2020/12/06 12:21:48;;;;;;;16.33;8.93;;;3.10;99.90;;;;;;4735199;30;20495;-77
2020/12/06 12:24:15;;;;;;;20.30;8.45;;;3.10;99.90;;;;;;4735522;30;20052;-77
2020/12/06 12:26:41;;;;;;;18.48;8.52;;;3.10;99.90;;;;;;4750121;30;20121;-77
2020/12/06 12:29:07;;;;;;;18.08;9.05;;;3.10;99.90;;;;;;4734139;30;20063;-77
2020/12/06 12:31:34;;;;;;;14.20;7.70;;;3.10;99.90;;;;;;4749283;30;20059;-77
2020/12/06 12:34:00;;;;;;;15.57;8.30;;;3.10;99.90;;;;;;4734616;30;20151;-77
2020/12/06 12:36:27;;;;;;;19.38;8.80;;;3.10;99.90;;;;;;4749614;30;20143;-77
2020/12/06 12:38:53;;;;;;;20.58;10.38;;;3.10;99.90;;;;;;4733898;30;20102;-77
2020/12/06 12:41:19;;;;;;;22.60;10.10;;;3.10;99.90;;;;;;4748839;30;20146;-77
2020/12/06 12:43:45;;;;;;;19.10;8.95;;;3.10;99.90;;;;;;4734402;30;20151;-77
2020/12/06 12:46:20;;;;;;;21.75;8.40;;;3.10;99.90;;;;;;4734444;30;20048;-77
2020/12/06 12:48:51;;;;;;;16.50;8.23;;;3.10;99.90;;;;;;4733991;30;20159;-77
2020/12/06 12:51:23;;;;;;;17.55;9.30;;;3.10;99.90;;;;;;4748618;30;20055;-77